createdAt,value
2017-11-13T00:00:04.193Z,1005.11
2017-11-13T00:01:04.203Z,1005.18
2017-11-13T00:02:04.242Z,1005.15
2017-11-13T00:03:04.565Z,1005.13
2017-11-13T00:04:04.352Z,1005.14
2017-11-13T00:05:04.440Z,1005.15
2017-11-13T00:06:04.434Z,1005.16
2017-11-13T00:07:04.411Z,1005.18
2017-11-13T00:08:04.441Z,1005.14
2017-11-13T00:09:04.518Z,1005.21
2017-11-13T00:10:04.787Z,1005.25
2017-11-13T00:11:04.528Z,1005.26
2017-11-13T00:12:04.544Z,1005.27
2017-11-13T00:13:04.640Z,1005.30
2017-11-13T00:14:04.660Z,1005.31
2017-11-13T00:15:04.694Z,1005.31
2017-11-13T00:16:04.723Z,1005.33
2017-11-13T00:17:05.024Z,1005.32
2017-11-13T00:18:04.796Z,1005.29
2017-11-13T00:19:04.833Z,1005.35
2017-11-13T00:20:04.828Z,1005.33
2017-11-13T00:21:04.842Z,1005.33
2017-11-13T00:22:04.858Z,1005.32
2017-11-13T00:23:04.905Z,1005.29
2017-11-13T00:24:05.559Z,1005.32
2017-11-13T00:25:04.938Z,1005.31
2017-11-13T00:26:04.970Z,1005.33
2017-11-13T00:27:04.999Z,1005.39
2017-11-13T00:28:05.065Z,1005.38
2017-11-13T00:29:05.061Z,1005.48
2017-11-13T00:30:05.100Z,1005.52
2017-11-13T00:31:05.423Z,1005.56
2017-11-13T00:32:05.158Z,1005.55
2017-11-13T00:33:05.186Z,1005.54
2017-11-13T00:34:05.217Z,1005.56
2017-11-13T00:35:05.251Z,1005.57
2017-11-13T00:36:05.281Z,1005.62
2017-11-13T00:37:05.307Z,1005.63
2017-11-13T00:38:05.643Z,1005.64
2017-11-13T00:39:05.377Z,1005.67
2017-11-13T00:40:05.403Z,1005.69
2017-11-13T00:41:05.432Z,1005.69
2017-11-13T00:42:05.471Z,1005.74
2017-11-13T00:43:05.505Z,1005.72
2017-11-13T00:44:05.533Z,1005.78
2017-11-13T00:45:05.963Z,1005.79
2017-11-13T00:46:05.589Z,1005.77
2017-11-13T00:47:05.622Z,1005.77
2017-11-13T00:48:05.652Z,1005.77
2017-11-13T00:49:05.688Z,1005.78
2017-11-13T00:50:05.711Z,1005.81
2017-11-13T00:51:05.748Z,1005.79
2017-11-13T00:52:06.231Z,1005.80
2017-11-13T00:53:05.806Z,1005.83
2017-11-13T00:54:05.836Z,1005.85
2017-11-13T00:55:05.889Z,1005.80
2017-11-13T00:56:05.899Z,1005.81
2017-11-13T00:57:05.941Z,1005.82
2017-11-13T00:58:05.962Z,1005.90
2017-11-13T00:59:06.310Z,1005.85
2017-11-13T01:00:06.020Z,1005.88
2017-11-13T01:01:06.048Z,1005.86
2017-11-13T01:02:06.130Z,1005.92
2017-11-13T01:03:06.162Z,1005.96
2017-11-13T01:04:06.144Z,1005.91
2017-11-13T01:05:06.178Z,1005.96
2017-11-13T01:06:06.535Z,1005.94
2017-11-13T01:07:06.233Z,1005.94
2017-11-13T01:08:06.273Z,1006.00
2017-11-13T01:09:06.312Z,1006.04
2017-11-13T01:10:06.334Z,1006.06
2017-11-13T01:11:06.359Z,1006.06
2017-11-13T01:12:06.393Z,1006.09
2017-11-13T01:13:06.719Z,1006.10
2017-11-13T01:14:06.455Z,1006.06
2017-11-13T01:15:06.486Z,1006.14
2017-11-13T01:16:06.517Z,1006.11
2017-11-13T01:17:06.545Z,1006.11
2017-11-13T01:18:06.827Z,1006.12
2017-11-13T01:19:06.906Z,1006.11
2017-11-13T01:20:06.637Z,1006.15
2017-11-13T01:21:06.671Z,1006.16
2017-11-13T01:22:06.713Z,1006.18
2017-11-13T01:23:06.738Z,1006.15
2017-11-13T01:24:06.811Z,1006.18
2017-11-13T01:25:07.093Z,1006.18
2017-11-13T01:26:06.820Z,1006.20
2017-11-13T01:27:06.856Z,1006.17
2017-11-13T01:28:06.881Z,1006.18
2017-11-13T01:29:06.918Z,1006.21
2017-11-13T01:30:06.942Z,1006.15
2017-11-13T01:31:07.274Z,1006.18
2017-11-13T01:32:07.007Z,1006.19
2017-11-13T01:33:07.048Z,1006.22
2017-11-13T01:34:07.085Z,1006.25
2017-11-13T01:35:07.150Z,1006.23
2017-11-13T01:36:07.127Z,1006.29
2017-11-13T01:37:07.463Z,1006.28
2017-11-13T01:38:07.243Z,1006.29
2017-11-13T01:39:07.222Z,1006.28
2017-11-13T01:40:07.257Z,1006.30
2017-11-13T01:41:07.287Z,1006.31
2017-11-13T01:42:07.323Z,1006.30
2017-11-13T01:43:07.349Z,1006.30
2017-11-13T01:44:07.380Z,1006.34
2017-11-13T01:45:07.508Z,1006.32
2017-11-13T01:46:07.448Z,1006.32
2017-11-13T01:47:07.477Z,1006.31
2017-11-13T01:48:07.501Z,1006.33
2017-11-13T01:49:07.832Z,1006.31
2017-11-13T01:50:07.567Z,1006.34
2017-11-13T01:51:07.596Z,1006.33
2017-11-13T01:52:07.620Z,1006.37
2017-11-13T01:53:07.650Z,1006.33
2017-11-13T01:54:07.699Z,1006.39
2017-11-13T01:55:08.025Z,1006.42
2017-11-13T01:56:07.760Z,1006.48
2017-11-13T01:57:07.776Z,1006.47
2017-11-13T01:58:07.810Z,1006.47
2017-11-13T01:59:07.836Z,1006.44
2017-11-13T02:00:07.871Z,1006.50
2017-11-13T02:01:08.311Z,1006.52
2017-11-13T02:02:07.933Z,1006.52
2017-11-13T02:03:07.964Z,1006.52
2017-11-13T02:04:07.998Z,1006.57
2017-11-13T02:05:08.025Z,1006.55
2017-11-13T02:06:08.071Z,1006.55
2017-11-13T02:07:08.384Z,1006.55
2017-11-13T02:08:08.119Z,1006.56
2017-11-13T02:09:08.159Z,1006.60
2017-11-13T02:10:08.184Z,1006.63
2017-11-13T02:11:08.218Z,1006.63
2017-11-13T02:12:08.411Z,1006.56
2017-11-13T02:13:08.567Z,1006.57
2017-11-13T02:14:08.300Z,1006.59
2017-11-13T02:15:08.326Z,1006.68
2017-11-13T02:16:08.363Z,1006.66
2017-11-13T02:17:08.393Z,1006.68
2017-11-13T02:18:08.421Z,1006.74
2017-11-13T02:19:08.750Z,1006.72
2017-11-13T02:20:08.483Z,1006.75
2017-11-13T02:21:08.526Z,1006.79
2017-11-13T02:22:08.546Z,1006.79
2017-11-13T02:23:08.588Z,1006.78
2017-11-13T02:24:08.684Z,1006.83
2017-11-13T02:25:08.941Z,1006.87
2017-11-13T02:26:08.682Z,1006.85
2017-11-13T02:27:08.698Z,1006.83
2017-11-13T02:28:08.745Z,1006.90
2017-11-13T02:29:08.785Z,1006.95
2017-11-13T02:30:08.792Z,1006.90
2017-11-13T02:31:09.188Z,1006.93
2017-11-13T02:32:08.864Z,1006.90
2017-11-13T02:33:08.891Z,1006.93
2017-11-13T02:34:09.073Z,1006.91
2017-11-13T02:35:08.998Z,1006.94
2017-11-13T02:36:09.003Z,1006.93
2017-11-13T02:37:09.020Z,1006.96
2017-11-13T02:38:09.336Z,1007.00
2017-11-13T02:39:09.076Z,1006.96
2017-11-13T02:40:09.101Z,1006.93
2017-11-13T02:41:09.133Z,1007.01
2017-11-13T02:42:09.161Z,1007.01
2017-11-13T02:43:09.252Z,1007.01
2017-11-13T02:44:09.267Z,1007.03
2017-11-13T02:45:09.564Z,1007.01
2017-11-13T02:46:09.283Z,1007.02
2017-11-13T02:47:09.513Z,1007.07
2017-11-13T02:48:09.363Z,1007.12
2017-11-13T02:49:09.382Z,1007.13
2017-11-13T02:50:09.407Z,1007.15
2017-11-13T02:51:09.436Z,1007.18
2017-11-13T02:52:09.769Z,1007.21
2017-11-13T02:53:09.650Z,1007.21
2017-11-13T02:54:09.529Z,1007.24
2017-11-13T02:55:09.571Z,1007.26
2017-11-13T02:56:09.596Z,1007.29
2017-11-13T02:57:09.626Z,1007.34
2017-11-13T02:58:09.709Z,1007.28
2017-11-13T02:59:09.983Z,1007.31
2017-11-13T03:00:09.713Z,1007.33
2017-11-13T03:01:09.748Z,1007.37
2017-11-13T03:02:09.776Z,1007.33
2017-11-13T03:03:09.808Z,1007.41
2017-11-13T03:04:09.836Z,1007.43
2017-11-13T03:05:09.892Z,1007.44
2017-11-13T03:06:10.203Z,1007.49
2017-11-13T03:07:09.945Z,1007.50
2017-11-13T03:08:09.961Z,1007.51
2017-11-13T03:09:10.130Z,1007.53
2017-11-13T03:10:10.037Z,1007.51
2017-11-13T03:11:10.056Z,1007.49
2017-11-13T03:12:10.084Z,1007.47
2017-11-13T03:13:10.423Z,1007.55
2017-11-13T03:14:10.195Z,1007.51
2017-11-13T03:15:10.184Z,1007.51
2017-11-13T03:16:10.206Z,1007.55
2017-11-13T03:17:10.295Z,1007.55
2017-11-13T03:18:10.336Z,1007.56
2017-11-13T03:19:10.301Z,1007.54
2017-11-13T03:20:10.636Z,1007.54
2017-11-13T03:21:10.358Z,1007.54
2017-11-13T03:22:10.444Z,1007.57
2017-11-13T03:23:10.472Z,1007.51
2017-11-13T03:24:10.465Z,1007.55
2017-11-13T03:25:10.533Z,1007.58
2017-11-13T03:26:10.516Z,1007.60
2017-11-13T03:27:10.845Z,1007.59
2017-11-13T03:28:10.585Z,1007.63
2017-11-13T03:29:10.607Z,1007.66
2017-11-13T03:30:10.639Z,1007.74
2017-11-13T03:31:10.673Z,1007.73
2017-11-13T03:32:10.754Z,1007.78
2017-11-13T03:33:10.732Z,1007.84
2017-11-13T03:34:11.063Z,1007.85
2017-11-13T03:35:10.826Z,1007.86
2017-11-13T03:36:10.953Z,1007.90
2017-11-13T03:37:10.897Z,1007.89
2017-11-13T03:38:10.938Z,1007.86
2017-11-13T03:39:10.966Z,1007.82
2017-11-13T03:40:10.949Z,1007.79
2017-11-13T03:41:11.285Z,1007.80
2017-11-13T03:42:11.013Z,1007.80
2017-11-13T03:43:11.088Z,1007.83
2017-11-13T03:44:11.084Z,1007.83
2017-11-13T03:45:11.150Z,1007.86
2017-11-13T03:46:11.178Z,1007.88
2017-11-13T03:47:11.229Z,1007.85
2017-11-13T03:48:11.532Z,1007.80
2017-11-13T03:49:11.235Z,1007.82
2017-11-13T03:50:11.327Z,1007.83
2017-11-13T03:51:11.286Z,1007.84
2017-11-13T03:52:11.373Z,1007.84
2017-11-13T03:53:11.354Z,1007.86
2017-11-13T03:54:11.677Z,1007.93
2017-11-13T03:55:11.406Z,1007.94
2017-11-13T03:56:11.440Z,1008.02
2017-11-13T03:57:11.472Z,1007.98
2017-11-13T03:58:11.497Z,1008.00
2017-11-13T03:59:11.543Z,1008.01
2017-11-13T04:00:11.872Z,1008.06
2017-11-13T04:01:11.648Z,1008.02
2017-11-13T04:02:11.636Z,1008.08
2017-11-13T04:03:11.669Z,1008.04
2017-11-13T04:04:11.682Z,1008.09
2017-11-13T04:05:11.717Z,1008.08
2017-11-13T04:06:12.048Z,1008.02
2017-11-13T04:07:11.777Z,1008.05
2017-11-13T04:08:11.820Z,1008.08
2017-11-13T04:09:11.902Z,1008.13
2017-11-13T04:10:11.874Z,1008.13
2017-11-13T04:11:11.898Z,1008.12
2017-11-13T04:12:12.240Z,1008.12
2017-11-13T04:13:11.960Z,1008.16
2017-11-13T04:14:11.989Z,1008.22
2017-11-13T04:15:12.022Z,1008.28
2017-11-13T04:16:12.075Z,1008.30
2017-11-13T04:17:12.127Z,1008.32
2017-11-13T04:18:12.418Z,1008.37
2017-11-13T04:19:12.194Z,1008.36
2017-11-13T04:20:12.662Z,1008.45
2017-11-13T04:21:12.217Z,1008.44
2017-11-13T04:22:12.239Z,1008.42
2017-11-13T04:23:12.272Z,1008.43
2017-11-13T04:24:12.602Z,1008.43
2017-11-13T04:25:12.331Z,1008.46
2017-11-13T04:26:12.361Z,1008.46
2017-11-13T04:27:12.392Z,1008.47
2017-11-13T04:28:12.423Z,1008.52
2017-11-13T04:29:12.629Z,1008.50
2017-11-13T04:30:12.788Z,1008.51
2017-11-13T04:31:12.513Z,1008.51
2017-11-13T04:32:12.546Z,1008.50
2017-11-13T04:33:12.577Z,1008.53
2017-11-13T04:34:12.610Z,1008.54
2017-11-13T04:35:12.642Z,1008.62
2017-11-13T04:36:12.992Z,1008.63
2017-11-13T04:37:12.701Z,1008.60
2017-11-13T04:38:12.731Z,1008.60
2017-11-13T04:39:12.774Z,1008.63
2017-11-13T04:40:12.796Z,1008.60
2017-11-13T04:41:12.830Z,1008.71
2017-11-13T04:42:12.857Z,1008.69
2017-11-13T04:43:12.884Z,1008.72
2017-11-13T04:44:12.916Z,1008.75
2017-11-13T04:45:12.943Z,1008.69
2017-11-13T04:46:13.025Z,1008.76
2017-11-13T04:47:13.012Z,1008.73
2017-11-13T04:48:13.337Z,1008.77
2017-11-13T04:49:13.066Z,1008.70
2017-11-13T04:50:13.123Z,1008.75
2017-11-13T04:51:13.203Z,1008.84
2017-11-13T04:52:13.161Z,1008.83
2017-11-13T04:53:13.192Z,1008.80
2017-11-13T04:54:13.526Z,1008.93
2017-11-13T04:55:13.251Z,1008.88
2017-11-13T04:56:13.285Z,1008.91
2017-11-13T04:57:13.312Z,1008.91
2017-11-13T04:58:13.345Z,1008.90
2017-11-13T04:59:13.373Z,1008.98
2017-11-13T05:00:13.715Z,1009.01
2017-11-13T05:01:13.435Z,1008.99
2017-11-13T05:02:13.475Z,1009.02
2017-11-13T05:03:13.497Z,1009.00
2017-11-13T05:04:13.540Z,1009.06
2017-11-13T05:05:13.558Z,1009.06
2017-11-13T05:06:13.593Z,1009.07
2017-11-13T05:07:13.923Z,1009.12
2017-11-13T05:08:13.704Z,1009.11
2017-11-13T05:09:13.680Z,1009.09
2017-11-13T05:10:13.716Z,1009.12
2017-11-13T05:11:13.747Z,1009.13
2017-11-13T05:12:13.774Z,1009.13
2017-11-13T05:13:13.855Z,1009.13
2017-11-13T05:14:14.147Z,1009.13
2017-11-13T05:15:13.865Z,1009.15
2017-11-13T05:16:13.936Z,1009.29
2017-11-13T05:17:13.939Z,1009.26
2017-11-13T05:18:14.109Z,1009.23
2017-11-13T05:19:13.989Z,1009.33
2017-11-13T05:20:14.319Z,1009.31
2017-11-13T05:21:14.055Z,1009.34
2017-11-13T05:22:14.091Z,1009.37
2017-11-13T05:23:14.164Z,1009.34
2017-11-13T05:25:14.183Z,1009.34
2017-11-13T05:26:14.560Z,1009.30
2017-11-13T05:27:14.241Z,1009.32
2017-11-13T05:28:14.267Z,1009.34
2017-11-13T05:29:14.303Z,1009.39
2017-11-13T05:30:14.329Z,1009.36
2017-11-13T05:31:14.357Z,1009.35
2017-11-13T05:32:14.389Z,1009.38
2017-11-13T05:33:14.721Z,1009.33
2017-11-13T05:34:14.657Z,1009.32
2017-11-13T05:35:15.045Z,1009.37
2017-11-13T05:36:14.510Z,1009.40
2017-11-13T05:38:14.584Z,1009.44
2017-11-13T05:39:14.905Z,1009.44
2017-11-13T05:40:14.639Z,1009.47
2017-11-13T05:41:14.663Z,1009.42
2017-11-13T05:42:14.704Z,1009.46
2017-11-13T05:43:14.726Z,1009.46
2017-11-13T05:44:14.761Z,1009.48
2017-11-13T05:45:14.837Z,1009.55
2017-11-13T05:46:15.172Z,1009.56
2017-11-13T05:47:14.885Z,1009.60
2017-11-13T05:48:14.894Z,1009.62
2017-11-13T05:49:14.909Z,1009.61
2017-11-13T05:50:14.956Z,1009.60
2017-11-13T05:51:14.982Z,1009.62
2017-11-13T05:52:15.304Z,1009.65
2017-11-13T05:53:15.041Z,1009.69
2017-11-13T05:54:15.082Z,1009.69
2017-11-13T05:55:15.101Z,1009.70
2017-11-13T05:56:15.189Z,1009.76
2017-11-13T05:57:15.186Z,1009.77
2017-11-13T05:58:15.486Z,1009.77
2017-11-13T05:59:15.224Z,1009.83
2017-11-13T06:00:15.249Z,1009.83
2017-11-13T06:01:15.760Z,1009.83
2017-11-13T06:02:15.319Z,1009.76
2017-11-13T06:03:15.360Z,1009.83
2017-11-13T06:04:15.674Z,1009.83
2017-11-13T06:05:15.416Z,1009.83
2017-11-13T06:06:15.450Z,1009.84
2017-11-13T06:07:15.472Z,1009.83
2017-11-13T06:08:15.634Z,1009.86
2017-11-13T06:09:15.615Z,1009.84
2017-11-13T06:10:15.625Z,1009.87
2017-11-13T06:11:15.996Z,1009.86
2017-11-13T06:12:15.656Z,1009.83
2017-11-13T06:13:16.160Z,1009.87
2017-11-13T06:14:15.775Z,1009.81
2017-11-13T06:15:15.764Z,1009.84
2017-11-13T06:16:15.852Z,1009.84
2017-11-13T06:17:15.814Z,1009.80
2017-11-13T06:18:16.198Z,1009.85
2017-11-13T06:19:16.023Z,1009.83
2017-11-13T06:20:16.078Z,1009.84
2017-11-13T06:21:15.951Z,1009.83
2017-11-13T06:22:15.976Z,1009.87
2017-11-13T06:23:16.007Z,1009.93
2017-11-13T06:24:16.392Z,1009.91
2017-11-13T06:25:16.061Z,1009.98
2017-11-13T06:26:16.090Z,1009.97
2017-11-13T06:27:16.132Z,1009.94
2017-11-13T06:28:16.154Z,1009.95
2017-11-13T06:29:16.230Z,1009.93
2017-11-13T06:30:16.560Z,1009.99
2017-11-13T06:31:16.223Z,1010.04
2017-11-13T06:32:16.267Z,1010.06
2017-11-13T06:33:16.285Z,1010.04
2017-11-13T06:34:16.330Z,1010.07
2017-11-13T06:35:16.414Z,1010.06
2017-11-13T06:36:16.732Z,1010.17
2017-11-13T06:37:16.408Z,1010.16
2017-11-13T06:38:16.437Z,1010.21
2017-11-13T06:39:16.475Z,1010.26
2017-11-13T06:40:16.497Z,1010.25
2017-11-13T06:41:16.772Z,1010.30
2017-11-13T06:42:16.864Z,1010.29
2017-11-13T06:43:16.600Z,1010.32
2017-11-13T06:44:16.635Z,1010.34
2017-11-13T06:45:16.643Z,1010.37
2017-11-13T06:46:16.673Z,1010.40
2017-11-13T06:47:16.705Z,1010.36
2017-11-13T06:48:17.038Z,1010.36
2017-11-13T06:49:16.766Z,1010.39
2017-11-13T06:50:16.802Z,1010.43
2017-11-13T06:51:16.826Z,1010.43
2017-11-13T06:52:16.887Z,1010.52
2017-11-13T06:53:16.907Z,1010.55
2017-11-13T06:54:17.468Z,1010.62
2017-11-13T06:55:16.952Z,1010.66
2017-11-13T06:56:16.998Z,1010.66
2017-11-13T06:57:17.017Z,1010.66
2017-11-13T06:58:17.057Z,1010.68
2017-11-13T06:59:17.074Z,1010.72
2017-11-13T07:00:17.105Z,1010.75
2017-11-13T07:01:17.482Z,1010.67
2017-11-13T07:02:17.199Z,1010.70
2017-11-13T07:03:17.197Z,1010.72
2017-11-13T07:04:17.327Z,1010.78
2017-11-13T07:05:17.290Z,1010.76
2017-11-13T07:06:17.285Z,1010.77
2017-11-13T07:07:17.621Z,1010.76
2017-11-13T07:08:17.356Z,1010.78
2017-11-13T07:09:17.373Z,1010.74
2017-11-13T07:10:17.401Z,1010.79
2017-11-13T07:11:17.443Z,1010.82
2017-11-13T07:12:17.462Z,1010.84
2017-11-13T07:13:17.797Z,1010.83
2017-11-13T07:14:17.574Z,1010.90
2017-11-13T07:15:17.562Z,1010.88
2017-11-13T07:16:17.593Z,1010.91
2017-11-13T07:17:17.617Z,1010.90
2017-11-13T07:18:17.647Z,1010.91
2017-11-13T07:19:18.083Z,1010.91
2017-11-13T07:20:17.710Z,1011.01
2017-11-13T07:21:17.754Z,1011.04
2017-11-13T07:22:17.772Z,1011.02
2017-11-13T07:23:17.799Z,1011.06
2017-11-13T07:24:17.837Z,1011.05
2017-11-13T07:25:18.165Z,1011.04
2017-11-13T07:26:17.905Z,1011.08
2017-11-13T07:27:17.922Z,1011.08
2017-11-13T07:28:17.979Z,1011.12
2017-11-13T07:29:17.988Z,1011.13
2017-11-13T07:30:18.332Z,1011.14
2017-11-13T07:31:18.363Z,1011.15
2017-11-13T07:32:18.101Z,1011.16
2017-11-13T07:33:18.116Z,1011.11
2017-11-13T07:34:18.143Z,1011.10
2017-11-13T07:35:18.184Z,1011.10
2017-11-13T07:36:18.221Z,1011.17
2017-11-13T07:37:18.549Z,1011.15
2017-11-13T07:38:18.273Z,1011.16
2017-11-13T07:39:18.295Z,1011.25
2017-11-13T07:40:18.324Z,1011.25
2017-11-13T07:41:18.415Z,1011.31
2017-11-13T07:42:18.398Z,1011.36
2017-11-13T07:43:18.430Z,1011.29
2017-11-13T07:44:18.456Z,1011.38
2017-11-13T07:45:18.539Z,1011.39
2017-11-13T07:46:18.521Z,1011.38
2017-11-13T07:47:18.540Z,1011.48
2017-11-13T07:48:18.572Z,1011.50
2017-11-13T07:49:18.939Z,1011.49
2017-11-13T07:50:18.636Z,1011.49
2017-11-13T07:51:18.678Z,1011.53
2017-11-13T07:52:18.762Z,1011.48
2017-11-13T07:53:18.758Z,1011.52
2017-11-13T07:54:18.765Z,1011.49
2017-11-13T07:55:18.787Z,1011.50
2017-11-13T07:56:19.129Z,1011.54
2017-11-13T07:57:18.859Z,1011.51
2017-11-13T07:58:18.882Z,1011.47
2017-11-13T07:59:18.920Z,1011.51
2017-11-13T08:00:18.956Z,1011.53
2017-11-13T08:01:18.986Z,1011.50
2017-11-13T08:02:19.013Z,1011.46
2017-11-13T08:03:19.345Z,1011.50
2017-11-13T08:04:19.120Z,1011.53
2017-11-13T08:05:19.102Z,1011.52
2017-11-13T08:06:19.153Z,1011.63
2017-11-13T08:07:19.160Z,1011.58
2017-11-13T08:08:19.218Z,1011.58
2017-11-13T08:09:19.272Z,1011.59
2017-11-13T08:10:19.625Z,1011.62
2017-11-13T08:11:19.289Z,1011.66
2017-11-13T08:12:19.337Z,1011.71
2017-11-13T08:13:19.365Z,1011.71
2017-11-13T08:14:19.392Z,1011.69
2017-11-13T08:15:19.424Z,1011.70
2017-11-13T08:16:19.738Z,1011.68
2017-11-13T08:17:19.477Z,1011.70
2017-11-13T08:18:19.503Z,1011.68
2017-11-13T08:19:19.536Z,1011.69
2017-11-13T08:20:19.566Z,1011.72
2017-11-13T08:21:19.652Z,1011.77
2017-11-13T08:22:19.926Z,1011.75
2017-11-13T08:23:19.663Z,1011.80
2017-11-13T08:24:19.699Z,1011.79
2017-11-13T08:25:19.718Z,1011.77
2017-11-13T08:26:19.749Z,1011.81
2017-11-13T08:27:19.802Z,1011.81
2017-11-13T08:28:20.124Z,1011.85
2017-11-13T08:29:19.842Z,1011.89
2017-11-13T08:30:19.885Z,1011.88
2017-11-13T08:31:19.914Z,1011.86
2017-11-13T08:32:19.947Z,1011.91
2017-11-13T08:33:19.967Z,1011.88
2017-11-13T08:34:20.300Z,1011.84
2017-11-13T08:35:20.043Z,1011.89
2017-11-13T08:36:20.062Z,1011.92
2017-11-13T08:37:20.095Z,1011.90
2017-11-13T08:38:20.122Z,1011.96
2017-11-13T08:39:20.149Z,1011.92
2017-11-13T08:40:20.482Z,1012.00
2017-11-13T08:41:20.209Z,1012.01
2017-11-13T08:42:20.408Z,1012.07
2017-11-13T08:43:20.275Z,1012.01
2017-11-13T08:44:20.308Z,1011.98
2017-11-13T08:45:20.357Z,1012.04
2017-11-13T08:46:20.676Z,1012.08
2017-11-13T08:47:20.405Z,1012.06
2017-11-13T08:48:20.433Z,1012.15
2017-11-13T08:49:20.573Z,1012.23
2017-11-13T08:50:20.564Z,1012.20
2017-11-13T08:51:20.518Z,1012.19
2017-11-13T08:52:20.852Z,1012.17
2017-11-13T08:53:20.606Z,1012.21
2017-11-13T08:54:20.613Z,1012.29
2017-11-13T08:55:20.679Z,1012.24
2017-11-13T08:56:20.692Z,1012.25
2017-11-13T08:57:20.719Z,1012.31
2017-11-13T08:58:21.038Z,1012.29
2017-11-13T08:59:20.785Z,1012.35
2017-11-13T09:00:20.822Z,1012.33
2017-11-13T09:01:20.838Z,1012.35
2017-11-13T09:02:20.905Z,1012.30
2017-11-13T09:03:21.112Z,1012.33
2017-11-13T09:04:21.447Z,1012.27
2017-11-13T09:05:21.126Z,1012.26
2017-11-13T09:06:20.987Z,1012.31
2017-11-13T09:07:21.036Z,1012.29
2017-11-13T09:08:21.049Z,1012.32
2017-11-13T09:09:21.133Z,1012.31
2017-11-13T09:10:21.154Z,1012.38
2017-11-13T09:11:21.441Z,1012.39
2017-11-13T09:12:21.171Z,1012.36
2017-11-13T09:13:21.217Z,1012.40
2017-11-13T09:14:21.233Z,1012.43
2017-11-13T09:15:21.273Z,1012.49
2017-11-13T09:16:21.298Z,1012.46
2017-11-13T09:17:21.634Z,1012.46
2017-11-13T09:18:21.402Z,1012.56
2017-11-13T09:19:21.387Z,1012.49
2017-11-13T09:20:21.424Z,1012.57
2017-11-13T09:21:21.450Z,1012.57
2017-11-13T09:22:21.494Z,1012.59
2017-11-13T09:23:21.824Z,1012.59
2017-11-13T09:24:21.608Z,1012.60
2017-11-13T09:25:21.629Z,1012.63
2017-11-13T09:26:21.782Z,1012.61
2017-11-13T09:27:21.680Z,1012.66
2017-11-13T09:28:21.827Z,1012.67
2017-11-13T09:29:22.073Z,1012.69
2017-11-13T09:30:21.738Z,1012.65
2017-11-13T09:31:21.763Z,1012.61
2017-11-13T09:32:21.820Z,1012.65
2017-11-13T09:33:21.852Z,1012.61
2017-11-13T09:34:21.859Z,1012.66
2017-11-13T09:35:22.188Z,1012.73
2017-11-13T09:36:21.918Z,1012.69
2017-11-13T09:37:21.953Z,1012.68
2017-11-13T09:38:21.982Z,1012.72
2017-11-13T09:39:22.260Z,1012.75
2017-11-13T09:40:22.042Z,1012.78
2017-11-13T09:41:22.919Z,1012.80
2017-11-13T09:42:22.105Z,1012.80
2017-11-13T09:43:22.139Z,1012.85
2017-11-13T09:44:22.168Z,1012.86
2017-11-13T09:45:22.217Z,1012.94
2017-11-13T09:46:22.228Z,1012.92
2017-11-13T09:47:22.558Z,1012.88
2017-11-13T09:48:22.306Z,1012.90
2017-11-13T09:49:22.337Z,1012.91
2017-11-13T09:50:22.353Z,1012.86
2017-11-13T09:51:22.382Z,1012.88
2017-11-13T09:52:22.414Z,1012.86
2017-11-13T09:53:22.745Z,1012.86
2017-11-13T09:54:22.479Z,1012.89
2017-11-13T09:55:22.507Z,1012.93
2017-11-13T09:56:22.593Z,1012.94
2017-11-13T09:57:22.572Z,1012.92
2017-11-13T09:58:22.604Z,1012.94
2017-11-13T09:59:22.637Z,1012.99
2017-11-13T10:00:22.682Z,1013.04
2017-11-13T10:01:22.697Z,1013.06
2017-11-13T10:02:22.725Z,1013.08
2017-11-13T10:03:22.757Z,1013.09
2017-11-13T10:04:23.092Z,1013.05
2017-11-13T10:05:22.824Z,1013.05
2017-11-13T10:06:22.855Z,1013.06
2017-11-13T10:07:22.882Z,1013.15
2017-11-13T10:08:22.916Z,1013.18
2017-11-13T10:09:23.058Z,1013.20
2017-11-13T10:10:31.074Z,1013.26
2017-11-13T10:11:23.016Z,1013.24
2017-11-13T10:12:23.057Z,1013.24
2017-11-13T10:13:23.078Z,1013.27
2017-11-13T10:14:23.103Z,1013.29
2017-11-13T10:15:23.130Z,1013.28
2017-11-13T10:16:23.482Z,1013.33
2017-11-13T10:17:23.302Z,1013.38
2017-11-13T10:18:23.224Z,1013.36
2017-11-13T10:19:23.271Z,1013.37
2017-11-13T10:20:23.291Z,1013.33
2017-11-13T10:21:23.330Z,1013.31
2017-11-13T10:22:23.650Z,1013.32
2017-11-13T10:23:23.382Z,1013.28
2017-11-13T10:24:23.410Z,1013.27
2017-11-13T10:25:23.453Z,1013.27
2017-11-13T10:26:23.480Z,1013.32
2017-11-13T10:27:23.514Z,1013.34
2017-11-13T10:28:23.839Z,1013.37
2017-11-13T10:29:23.576Z,1013.36
2017-11-13T10:30:23.601Z,1013.36
2017-11-13T10:31:23.654Z,1013.38
2017-11-13T10:32:23.675Z,1013.33
2017-11-13T10:33:23.699Z,1013.35
2017-11-13T10:34:24.038Z,1013.31
2017-11-13T10:35:23.788Z,1013.27
2017-11-13T10:36:23.791Z,1013.29
2017-11-13T10:37:23.833Z,1013.30
2017-11-13T10:38:23.863Z,1013.29
2017-11-13T10:39:23.885Z,1013.28
2017-11-13T10:40:24.216Z,1013.29
2017-11-13T10:41:23.960Z,1013.29
2017-11-13T10:42:23.984Z,1013.23
2017-11-13T10:43:24.012Z,1013.22
2017-11-13T10:44:24.041Z,1013.20
2017-11-13T10:45:24.088Z,1013.16
2017-11-13T10:46:24.424Z,1013.18
2017-11-13T10:47:24.137Z,1013.20
2017-11-13T10:48:24.172Z,1013.19
2017-11-13T10:49:24.304Z,1013.21
2017-11-13T10:50:24.229Z,1013.19
2017-11-13T10:51:24.259Z,1013.19
2017-11-13T10:52:24.606Z,1013.20
2017-11-13T10:53:24.324Z,1013.22
2017-11-13T10:54:24.421Z,1013.22
2017-11-13T10:55:24.387Z,1013.20
2017-11-13T10:56:24.422Z,1013.21
2017-11-13T10:57:24.453Z,1013.22
2017-11-13T10:58:24.782Z,1013.24
2017-11-13T10:59:24.534Z,1013.22
2017-11-13T11:00:24.549Z,1013.25
2017-11-13T11:01:24.644Z,1013.23
2017-11-13T11:02:24.638Z,1013.24
2017-11-13T11:03:24.637Z,1013.20
2017-11-13T11:04:24.983Z,1013.25
2017-11-13T11:05:24.750Z,1013.20
2017-11-13T11:06:24.746Z,1013.21
2017-11-13T11:07:24.762Z,1013.18
2017-11-13T11:08:24.810Z,1013.21
2017-11-13T11:09:24.826Z,1013.22
2017-11-13T11:10:25.167Z,1013.15
2017-11-13T11:11:24.887Z,1013.16
2017-11-13T11:12:24.923Z,1013.12
2017-11-13T11:13:24.960Z,1013.13
2017-11-13T11:14:24.986Z,1013.16
2017-11-13T11:15:25.017Z,1013.17
2017-11-13T11:16:25.375Z,1013.13
2017-11-13T11:17:25.102Z,1013.14
2017-11-13T11:18:25.110Z,1013.15
2017-11-13T11:19:25.141Z,1013.21
2017-11-13T11:20:25.189Z,1013.20
2017-11-13T11:21:25.232Z,1013.21
2017-11-13T11:22:25.572Z,1013.27
2017-11-13T11:23:25.276Z,1013.25
2017-11-13T11:24:25.310Z,1013.26
2017-11-13T11:25:25.462Z,1013.31
2017-11-13T11:26:25.428Z,1013.33
2017-11-13T11:27:25.400Z,1013.38
2017-11-13T11:28:25.441Z,1013.28
2017-11-13T11:29:25.472Z,1013.34
2017-11-13T11:30:25.488Z,1013.29
2017-11-13T11:31:25.527Z,1013.30
2017-11-13T11:32:25.551Z,1013.35
2017-11-13T11:33:25.888Z,1013.29
2017-11-13T11:34:25.725Z,1013.31
2017-11-13T11:35:25.651Z,1013.39
2017-11-13T11:36:25.761Z,1013.42
2017-11-13T11:37:25.722Z,1013.41
2017-11-13T11:38:25.749Z,1013.40
2017-11-13T11:39:26.112Z,1013.36
2017-11-13T11:40:25.812Z,1013.39
2017-11-13T11:41:25.847Z,1013.42
2017-11-13T11:42:25.873Z,1013.43
2017-11-13T11:43:25.910Z,1013.42
2017-11-13T11:44:25.930Z,1013.46
2017-11-13T11:45:26.325Z,1013.53
2017-11-13T11:46:26.013Z,1013.50
2017-11-13T11:47:26.044Z,1013.54
2017-11-13T11:48:26.060Z,1013.52
2017-11-13T11:49:26.106Z,1013.54
2017-11-13T11:50:26.390Z,1013.48
2017-11-13T11:51:26.455Z,1013.54
2017-11-13T11:52:26.214Z,1013.57
2017-11-13T11:53:26.226Z,1013.62
2017-11-13T11:54:26.268Z,1013.57
2017-11-13T11:55:26.281Z,1013.61
2017-11-13T11:56:26.314Z,1013.57
2017-11-13T11:57:26.650Z,1013.52
2017-11-13T11:58:26.380Z,1013.61
2017-11-13T11:59:26.407Z,1013.55
2017-11-13T12:00:26.445Z,1013.56
2017-11-13T12:01:26.489Z,1013.56
2017-11-13T12:02:26.506Z,1013.55
2017-11-13T12:03:26.840Z,1013.57
2017-11-13T12:04:26.577Z,1013.57
2017-11-13T12:05:26.655Z,1013.62
2017-11-13T12:06:26.638Z,1013.67
2017-11-13T12:07:26.689Z,1013.62